createdAt,value
2022-08-03T00:00:27.977Z,101438.34
2022-08-03T00:05:24.547Z,101430.19
2022-08-03T00:10:21.184Z,101431.03
2022-08-03T00:15:17.824Z,101440.66
2022-08-03T00:20:14.435Z,101434.34
2022-08-03T00:25:10.970Z,101441.78
2022-08-03T00:30:08.269Z,101434.00
2022-08-03T00:35:08.006Z,101424.47
2022-08-03T00:40:06.283Z,101424.94
2022-08-03T00:45:03.060Z,101430.69
2022-08-03T00:49:59.647Z,101427.59
2022-08-03T00:54:56.515Z,101427.28
2022-08-03T00:59:53.151Z,101430.91
2022-08-03T01:04:49.709Z,101425.47
2022-08-03T01:09:54.954Z,101426.78
2022-08-03T01:15:07.201Z,101420.31
2022-08-03T01:20:07.660Z,101419.78
2022-08-03T01:25:19.097Z,101418.44
2022-08-03T01:30:15.882Z,101419.06
2022-08-03T01:35:15.264Z,101414.28
2022-08-03T01:40:13.721Z,101412.06
2022-08-03T01:45:13.108Z,101406.28
2022-08-03T01:50:10.981Z,101411.97
2022-08-03T01:55:08.857Z,101412.59
2022-08-03T02:00:07.393Z,101411.22
2022-08-03T02:05:10.598Z,101401.88
2022-08-03T02:10:09.636Z,101402.19
2022-08-03T02:15:07.521Z,101401.66
2022-08-03T02:20:05.160Z,101399.59
2022-08-03T02:25:01.892Z,101397.34
2022-08-03T02:30:09.141Z,101403.06
2022-08-03T02:35:08.739Z,101399.81
2022-08-03T02:40:06.476Z,101395.72
2022-08-03T02:45:07.067Z,101382.38
2022-08-03T02:50:03.947Z,101381.44
2022-08-03T02:55:03.474Z,101387.88
2022-08-03T03:00:00.363Z,101385.31
2022-08-03T03:05:53.565Z,101378.53
2022-08-03T03:10:15.101Z,101387.78
2022-08-03T03:15:12.385Z,101384.41
2022-08-03T03:20:09.511Z,101385.25
2022-08-03T03:25:06.710Z,101381.69
2022-08-03T03:30:04.897Z,101379.97
2022-08-03T03:35:02.242Z,101387.09
2022-08-03T03:39:59.174Z,101387.09
2022-08-03T03:44:56.809Z,101388.97
2022-08-03T03:49:58.287Z,101382.84
2022-08-03T03:55:00.418Z,101382.69
2022-08-03T03:59:58.572Z,101385.38
2022-08-03T04:05:14.969Z,101390.09
2022-08-03T04:15:57.737Z,101382.00
2022-08-03T04:21:19.437Z,101376.06
2022-08-03T04:26:35.858Z,101365.34
2022-08-03T04:31:40.928Z,101394.03
2022-08-03T04:36:55.722Z,101364.72
2022-08-03T04:42:07.136Z,101392.75
2022-08-03T04:47:05.307Z,101397.75
2022-08-03T04:52:02.551Z,101391.94
2022-08-03T04:56:59.728Z,101403.22
2022-08-03T05:02:02.678Z,101404.81
2022-08-03T05:06:59.800Z,101406.28
2022-08-03T05:12:09.083Z,101400.91
2022-08-03T05:17:09.991Z,101407.91
2022-08-03T05:22:07.116Z,101397.31
2022-08-03T05:27:04.140Z,101408.03
2022-08-03T05:32:07.780Z,101402.81
2022-08-03T05:37:08.264Z,101412.84
2022-08-03T05:42:07.316Z,101411.34
2022-08-03T05:47:05.130Z,101402.56
2022-08-03T05:52:13.782Z,101408.88
2022-08-03T05:57:16.133Z,101399.25
2022-08-03T06:02:13.170Z,101402.38
2022-08-03T06:07:10.347Z,101406.53
2022-08-03T06:12:10.056Z,101396.91
2022-08-03T06:17:11.828Z,101407.91
2022-08-03T06:22:09.774Z,101401.47
2022-08-03T06:27:06.976Z,101397.69
2022-08-03T06:32:04.149Z,101394.31
2022-08-03T06:37:04.163Z,101395.78
2022-08-03T06:42:02.353Z,101400.59
2022-08-03T06:46:59.677Z,101401.81
2022-08-03T06:52:03.603Z,101403.78
2022-08-03T06:57:04.115Z,101399.72
2022-08-03T07:02:00.782Z,101403.66
2022-08-03T07:06:57.851Z,101402.13
2022-08-03T07:11:55.527Z,101406.44
2022-08-03T07:16:53.659Z,101414.06
2022-08-03T07:21:50.440Z,101415.31
2022-08-03T07:26:50.491Z,101412.00
2022-08-03T07:31:47.741Z,101414.38
2022-08-03T07:36:44.664Z,101424.53
2022-08-03T07:41:41.618Z,101417.50
2022-08-03T07:46:39.117Z,101415.72
2022-08-03T07:51:36.435Z,101415.06
2022-08-03T07:56:33.965Z,101406.19
2022-08-03T08:01:36.200Z,101403.53
2022-08-03T08:06:33.717Z,101412.81
2022-08-03T08:11:30.920Z,101408.13
2022-08-03T08:16:27.951Z,101405.50
2022-08-03T08:21:25.065Z,101401.16
2022-08-03T08:26:42.293Z,101399.56
2022-08-03T08:31:39.206Z,101397.50
2022-08-03T08:36:36.585Z,101392.31
2022-08-03T08:41:34.899Z,101395.56
2022-08-03T08:46:33.658Z,101399.69
2022-08-03T08:51:59.611Z,101400.22
2022-08-03T08:56:59.452Z,101396.56
2022-08-03T09:01:57.264Z,101400.66
2022-08-03T09:07:18.759Z,101409.09
2022-08-03T09:12:20.042Z,101386.78
2022-08-03T09:17:17.722Z,101393.19
2022-08-03T09:22:19.985Z,101401.41
2022-08-03T09:27:20.223Z,101392.66
2022-08-03T09:32:22.733Z,101386.75
2022-08-03T09:37:23.352Z,101399.25
2022-08-03T09:42:57.014Z,101396.97
2022-08-03T09:47:54.025Z,101396.22
2022-08-03T09:52:52.936Z,101397.09
2022-08-03T09:57:54.118Z,101388.78
2022-08-03T10:03:06.742Z,101385.25
2022-08-03T10:08:15.969Z,101389.72
2022-08-03T10:13:20.463Z,101390.38
2022-08-03T10:23:38.179Z,101383.09
2022-08-03T10:28:45.098Z,101382.69
2022-08-03T10:33:49.814Z,101382.91
2022-08-03T10:38:53.286Z,101381.25
2022-08-03T10:44:00.033Z,101367.41
2022-08-03T10:48:58.807Z,101364.09
2022-08-03T10:53:57.589Z,101369.19
2022-08-03T10:58:57.488Z,101363.97
2022-08-03T11:03:56.386Z,101367.38
2022-08-03T11:09:20.722Z,101346.09
2022-08-03T11:14:22.178Z,101362.53
2022-08-03T11:19:27.698Z,101368.47
2022-08-03T11:24:40.441Z,101372.25
2022-08-03T11:29:37.395Z,101368.47
2022-08-03T11:34:34.809Z,101356.06
2022-08-03T11:39:49.036Z,101356.69
2022-08-03T11:44:49.904Z,101356.72
2022-08-03T11:49:51.578Z,101353.38
2022-08-03T11:54:57.037Z,101350.50
2022-08-03T11:59:54.829Z,101355.53
2022-08-03T12:05:01.374Z,101350.50
2022-08-03T12:10:12.693Z,101356.38
2022-08-03T12:15:10.315Z,101339.34
2022-08-03T12:20:16.414Z,101336.63
2022-08-03T12:25:39.548Z,101328.03
2022-08-03T12:30:46.782Z,101316.41
2022-08-03T12:35:52.391Z,101335.59
2022-08-03T12:41:21.844Z,101311.78
2022-08-03T12:46:20.628Z,101321.91
2022-08-03T12:51:17.465Z,101325.69
2022-08-03T12:56:14.914Z,101330.31
2022-08-03T13:01:15.829Z,101331.19
2022-08-03T13:06:18.201Z,101330.31
2022-08-03T13:11:53.594Z,101333.72
2022-08-03T13:16:49.670Z,101335.19
2022-08-03T13:22:01.690Z,101342.97
2022-08-03T13:28:01.463Z,101328.66
2022-08-03T13:32:21.696Z,101323.63
2022-08-03T13:37:19.201Z,101329.94
2022-08-03T13:42:16.776Z,101326.94
2022-08-03T13:47:14.617Z,101327.34
2022-08-03T13:52:11.741Z,101322.50
2022-08-03T13:58:02.506Z,101322.28
2022-08-03T14:02:41.004Z,101310.72
2022-08-03T14:07:46.142Z,101300.41
2022-08-03T14:12:43.375Z,101308.41
2022-08-03T14:17:50.056Z,101293.06
2022-08-03T14:23:08.741Z,101288.81
2022-08-03T14:28:10.596Z,101301.22
2022-08-03T14:33:08.774Z,101299.09
2022-08-03T14:38:05.687Z,101294.28
2022-08-03T14:43:03.116Z,101283.75
2022-08-03T14:49:02.546Z,101263.97
2022-08-03T14:53:22.834Z,101278.91
2022-08-03T14:58:24.273Z,101279.09
2022-08-03T15:03:25.607Z,101281.41
2022-08-03T15:08:24.067Z,101272.56
2022-08-03T15:13:22.069Z,101273.41
2022-08-03T15:18:28.653Z,101249.00
2022-08-03T15:23:33.075Z,101261.84
2022-08-03T15:28:30.120Z,101277.59
2022-08-03T15:33:26.642Z,101269.59
2022-08-03T15:38:25.842Z,101276.34
2022-08-03T15:43:23.813Z,101264.53
2022-08-03T15:48:20.458Z,101277.38
2022-08-03T15:53:23.378Z,101269.19
2022-08-03T15:59:10.428Z,101273.84
2022-08-03T16:03:36.771Z,101266.09
2022-08-03T16:08:34.146Z,101270.06
2022-08-03T16:14:13.772Z,101266.25
2022-08-03T16:18:56.404Z,101259.31
2022-08-03T16:23:53.307Z,101260.97
2022-08-03T16:28:50.619Z,101265.81
2022-08-03T16:33:47.130Z,101264.16
2022-08-03T16:38:43.850Z,101259.72
2022-08-03T16:43:40.488Z,101263.09
2022-08-03T16:48:38.534Z,101265.81
2022-08-03T16:54:07.888Z,101270.47
2022-08-03T16:58:51.981Z,101267.13
2022-08-03T17:04:01.792Z,101268.38
2022-08-03T17:09:00.644Z,101277.88
2022-08-03T17:13:57.212Z,101271.56
2022-08-03T17:19:01.972Z,101263.16
2022-08-03T17:24:04.883Z,101266.09
2022-08-03T17:29:12.758Z,101270.09
2022-08-03T17:34:09.969Z,101278.97
2022-08-03T17:39:08.040Z,101276.03
2022-08-03T17:44:15.546Z,101279.84
2022-08-03T17:49:25.266Z,101278.78
2022-08-03T17:55:55.978Z,101270.78
2022-08-03T18:00:26.758Z,101274.56
2022-08-03T18:05:24.645Z,101278.56
2022-08-03T18:10:49.689Z,101279.41
2022-08-03T18:15:54.070Z,101281.53
2022-08-03T18:20:51.165Z,101289.50
2022-08-03T18:25:53.713Z,101286.13
2022-08-03T18:30:55.279Z,101287.00
2022-08-03T18:35:53.086Z,101287.97
2022-08-03T18:40:50.711Z,101286.69
2022-08-03T18:45:58.039Z,101291.94
2022-08-03T18:51:10.370Z,101293.00
2022-08-03T18:56:07.260Z,101304.28
2022-08-03T19:01:56.457Z,101308.94
2022-08-03T19:06:31.867Z,101305.75
2022-08-03T19:12:13.927Z,101306.16
2022-08-03T19:17:12.037Z,101319.81
2022-08-03T19:22:10.862Z,101318.09
2022-08-03T19:27:10.819Z,101324.53
2022-08-03T19:32:07.703Z,101333.75
2022-08-03T19:37:04.726Z,101334.75
2022-08-03T19:42:12.177Z,101333.25
2022-08-03T19:47:28.619Z,101325.19
2022-08-03T19:52:31.579Z,101328.94
2022-08-03T19:57:29.085Z,101345.25
2022-08-03T20:02:27.969Z,101345.44
2022-08-03T20:07:27.791Z,101345.34
2022-08-03T20:12:29.424Z,101339.84
2022-08-03T20:17:54.831Z,101341.84
2022-08-03T20:22:48.060Z,101346.84
2022-08-03T20:28:06.878Z,101352.03
2022-08-03T20:33:02.944Z,101355.91
2022-08-03T20:38:02.658Z,101360.66
2022-08-03T20:42:59.803Z,101365.19
2022-08-03T20:48:00.796Z,101362.75
2022-08-03T20:52:58.602Z,101371.31
2022-08-03T20:58:00.510Z,101380.47
2022-08-03T21:02:57.137Z,101379.72
2022-08-03T21:08:04.852Z,101376.72
2022-08-03T21:13:16.892Z,101393.84
2022-08-03T21:18:15.899Z,101388.69
2022-08-03T21:23:40.080Z,101391.31
2022-08-03T21:28:30.864Z,101388.53
2022-08-03T21:33:27.803Z,101384.66
2022-08-03T21:38:29.857Z,101387.28
2022-08-03T21:43:26.854Z,101394.69
2022-08-03T21:48:25.503Z,101382.88
2022-08-03T21:53:23.555Z,101389.03
2022-08-03T21:58:30.070Z,101396.44
2022-08-03T22:03:26.843Z,101393.44
2022-08-03T22:08:24.524Z,101408.63
2022-08-03T22:13:23.684Z,101394.09
2022-08-03T22:18:40.487Z,101389.94
2022-08-03T22:23:42.579Z,101395.63
2022-08-03T22:28:39.124Z,101405.72
2022-08-03T22:33:36.715Z,101398.44
2022-08-03T22:38:33.387Z,101409.22
2022-08-03T22:43:31.077Z,101405.72
2022-08-03T22:48:27.880Z,101413.09
2022-08-03T22:53:24.437Z,101414.28
2022-08-03T22:58:21.109Z,101413.31
2022-08-03T23:03:24.688Z,101417.91
2022-08-03T23:08:24.956Z,101415.53
2022-08-03T23:13:25.528Z,101414.88
2022-08-03T23:18:23.155Z,101416.28
2022-08-03T23:23:20.713Z,101415.78
2022-08-03T23:28:18.158Z,101415.13
2022-08-03T23:33:16.666Z,101411.91
2022-08-03T23:38:22.124Z,101408.47
2022-08-03T23:43:44.863Z,101410.69
2022-08-03T23:48:37.163Z,101413.97
2022-08-03T23:54:01.470Z,101409.06
2022-08-03T23:59:04.502Z,101421.13
